createdAt,value
2024-03-13T00:01:37.926Z,100.00
2024-03-13T00:04:46.507Z,100.00
2024-03-13T00:07:49.397Z,100.00
2024-03-13T00:10:52.351Z,100.00
2024-03-13T00:13:56.425Z,100.00
2024-03-13T00:16:59.452Z,100.00
2024-03-13T00:20:02.486Z,100.00
2024-03-13T00:23:06.620Z,100.00
2024-03-13T00:26:09.308Z,100.00
2024-03-13T00:29:12.572Z,100.00
2024-03-13T00:32:18.003Z,100.00
2024-03-13T00:35:25.248Z,100.00
2024-03-13T00:38:27.757Z,100.00
2024-03-13T00:41:30.947Z,100.00
2024-03-13T00:44:33.556Z,100.00
2024-03-13T00:47:36.776Z,100.00
2024-03-13T00:50:41.299Z,100.00
2024-03-13T00:53:44.553Z,100.00
2024-03-13T00:56:49.395Z,100.00
2024-03-13T00:59:52.601Z,100.00
2024-03-13T01:02:55.122Z,100.00
2024-03-13T01:05:58.625Z,100.00
2024-03-13T01:09:01.617Z,100.00
2024-03-13T01:12:07.227Z,100.00
2024-03-13T01:15:10.903Z,100.00
2024-03-13T01:18:14.254Z,100.00
2024-03-13T01:21:17.416Z,100.00
2024-03-13T01:24:21.941Z,100.00
2024-03-13T01:27:24.801Z,100.00
2024-03-13T01:30:30.591Z,100.00
2024-03-13T01:33:34.058Z,100.00
2024-03-13T01:36:56.753Z,100.00
2024-03-13T01:40:04.039Z,100.00
2024-03-13T01:43:25.903Z,100.00
2024-03-13T01:46:46.855Z,100.00
2024-03-13T01:50:08.291Z,100.00
2024-03-13T01:53:29.758Z,100.00
2024-03-13T01:56:33.002Z,100.00
2024-03-13T01:59:50.081Z,100.00
2024-03-13T02:02:53.349Z,100.00
2024-03-13T02:05:59.068Z,100.00
2024-03-13T02:09:02.008Z,100.00
2024-03-13T02:12:09.621Z,100.00
2024-03-13T02:15:12.224Z,100.00
2024-03-13T02:18:22.397Z,100.00
2024-03-13T02:21:25.478Z,100.00
2024-03-13T02:24:28.791Z,100.00
2024-03-13T02:27:33.896Z,100.00
2024-03-13T02:30:36.990Z,100.00
2024-03-13T02:33:40.119Z,100.00
2024-03-13T02:36:43.843Z,100.00
2024-03-13T02:39:46.756Z,100.00
2024-03-13T02:42:49.951Z,100.00
2024-03-13T02:45:53.383Z,100.00
2024-03-13T02:48:56.670Z,100.00
2024-03-13T02:51:59.683Z,100.00
2024-03-13T02:55:02.876Z,100.00
2024-03-13T02:58:06.050Z,100.00
2024-03-13T03:01:09.382Z,100.00
2024-03-13T03:04:12.963Z,100.00
2024-03-13T03:07:17.370Z,100.00
2024-03-13T03:10:20.772Z,100.00
2024-03-13T03:13:24.426Z,100.00
2024-03-13T03:16:29.600Z,100.00
2024-03-13T03:19:35.488Z,100.00
2024-03-13T03:22:38.310Z,100.00
2024-03-13T03:25:41.545Z,100.00
2024-03-13T03:28:44.319Z,100.00
2024-03-13T03:31:47.461Z,100.00
2024-03-13T03:34:50.323Z,100.00
2024-03-13T03:37:53.598Z,100.00
2024-03-13T03:40:56.448Z,100.00
2024-03-13T03:44:00.902Z,100.00
2024-03-13T03:47:04.121Z,100.00
2024-03-13T03:50:08.298Z,100.00
2024-03-13T03:53:11.205Z,100.00
2024-03-13T03:56:14.404Z,100.00
2024-03-13T03:59:17.021Z,100.00
2024-03-13T04:02:20.825Z,100.00
2024-03-13T04:05:24.344Z,100.00
2024-03-13T04:08:27.125Z,100.00
2024-03-13T04:11:30.528Z,100.00
2024-03-13T04:14:33.192Z,100.00
2024-03-13T04:17:36.698Z,100.00
2024-03-13T04:20:39.611Z,100.00
2024-03-13T04:23:47.118Z,100.00
2024-03-13T04:26:49.969Z,100.00
2024-03-13T04:29:53.045Z,100.00
2024-03-13T04:32:55.686Z,100.00
2024-03-13T04:35:58.701Z,100.00
2024-03-13T04:39:01.989Z,100.00
2024-03-13T04:42:05.653Z,100.00
2024-03-13T04:45:08.714Z,100.00
2024-03-13T04:48:12.159Z,100.00
2024-03-13T04:51:15.406Z,100.00
2024-03-13T04:54:18.557Z,100.00
2024-03-13T04:57:21.230Z,100.00
2024-03-13T05:00:25.289Z,100.00
2024-03-13T05:03:28.073Z,100.00
2024-03-13T05:06:31.098Z,100.00
2024-03-13T05:09:33.657Z,100.00
2024-03-13T05:12:39.591Z,100.00
2024-03-13T05:15:42.299Z,100.00
2024-03-13T05:18:45.459Z,100.00
2024-03-13T05:21:48.285Z,100.00
2024-03-13T05:24:51.145Z,100.00
2024-03-13T05:27:53.940Z,100.00
2024-03-13T05:30:57.061Z,100.00
2024-03-13T05:33:59.628Z,100.00
2024-03-13T05:37:02.913Z,100.00
2024-03-13T05:40:18.489Z,100.00
2024-03-13T05:43:21.701Z,100.00
2024-03-13T05:46:24.343Z,100.00
2024-03-13T05:49:27.339Z,100.00
2024-03-13T05:52:30.321Z,100.00
2024-03-13T05:55:34.098Z,100.00
2024-03-13T05:58:37.085Z,100.00
2024-03-13T06:01:40.028Z,100.00
2024-03-13T06:04:43.427Z,100.00
2024-03-13T06:07:47.827Z,100.00
2024-03-13T06:10:51.126Z,100.00
2024-03-13T06:13:55.075Z,100.00
2024-03-13T06:16:58.176Z,100.00
2024-03-13T06:20:00.940Z,100.00
2024-03-13T06:23:04.245Z,100.00
2024-03-13T06:26:08.943Z,100.00
2024-03-13T06:29:30.749Z,100.00
2024-03-13T06:32:33.566Z,100.00
2024-03-13T06:35:36.793Z,100.00
2024-03-13T06:38:39.586Z,100.00
2024-03-13T06:41:42.811Z,100.00
2024-03-13T06:44:45.875Z,100.00
2024-03-13T06:47:49.010Z,100.00
2024-03-13T06:50:51.578Z,100.00
2024-03-13T06:53:54.667Z,100.00
2024-03-13T06:56:58.501Z,100.00
2024-03-13T07:00:01.792Z,100.00
2024-03-13T07:03:04.984Z,100.00
2024-03-13T07:06:10.912Z,100.00
2024-03-13T07:09:17.906Z,100.00
2024-03-13T07:12:21.033Z,100.00
2024-03-13T07:15:23.847Z,100.00
2024-03-13T07:18:32.124Z,100.00
2024-03-13T07:21:36.142Z,100.00
2024-03-13T07:24:39.258Z,100.00
2024-03-13T07:27:42.164Z,100.00
2024-03-13T07:30:45.371Z,100.00
2024-03-13T07:33:48.466Z,100.00
2024-03-13T07:36:53.071Z,100.00
2024-03-13T07:39:56.758Z,100.00
2024-03-13T07:42:59.795Z,100.00
2024-03-13T07:46:02.816Z,100.00
2024-03-13T07:49:06.076Z,100.00
2024-03-13T07:52:09.222Z,100.00
2024-03-13T07:55:12.277Z,100.00
2024-03-13T07:58:15.218Z,100.00
2024-03-13T08:01:18.970Z,100.00
2024-03-13T08:04:24.439Z,100.00
2024-03-13T09:07:50.091Z,94.92
2024-03-13T09:10:53.130Z,91.68
2024-03-13T09:14:02.527Z,92.94
2024-03-13T09:17:10.071Z,92.06
2024-03-13T09:20:15.627Z,91.62
2024-03-13T09:23:18.999Z,87.55
2024-03-13T09:26:21.771Z,86.49
2024-03-13T09:29:24.956Z,86.01
2024-03-13T09:32:29.492Z,85.52
2024-03-13T09:35:32.580Z,84.37
2024-03-13T09:38:35.365Z,83.47
2024-03-13T09:41:39.093Z,83.22
2024-03-13T09:44:44.763Z,83.01
2024-03-13T09:47:51.123Z,82.55
2024-03-13T09:50:57.018Z,83.27
2024-03-13T09:54:02.558Z,84.18
2024-03-13T09:57:05.300Z,86.03
2024-03-13T10:00:21.114Z,83.60
2024-03-13T10:03:26.828Z,84.00
2024-03-13T10:06:34.041Z,83.18
2024-03-13T10:09:38.239Z,81.18
2024-03-13T10:12:42.748Z,81.87
2024-03-13T10:15:48.351Z,77.47
2024-03-13T10:18:54.167Z,76.04
2024-03-13T10:21:57.277Z,74.38
2024-03-13T10:25:01.327Z,73.55
2024-03-13T10:28:05.232Z,71.45
2024-03-13T10:31:08.546Z,70.87
2024-03-13T10:34:11.693Z,70.70
2024-03-13T10:37:15.292Z,69.44
2024-03-13T10:40:18.729Z,69.08
2024-03-13T10:43:21.310Z,71.25
2024-03-13T10:46:24.211Z,70.37
2024-03-13T10:49:29.302Z,67.67
2024-03-13T10:52:32.179Z,69.40
2024-03-13T10:55:36.724Z,73.07
2024-03-13T10:58:39.933Z,71.25
2024-03-13T11:01:46.835Z,71.58
2024-03-13T11:04:50.599Z,71.03
2024-03-13T11:07:56.029Z,70.64
2024-03-13T11:11:10.315Z,69.50
2024-03-13T11:14:21.672Z,69.14
2024-03-13T11:17:32.592Z,67.60
2024-03-13T11:20:49.029Z,66.59
2024-03-13T11:24:03.223Z,65.18
2024-03-13T11:27:17.133Z,63.60
2024-03-13T11:30:22.161Z,64.47
2024-03-13T11:33:26.256Z,61.98
2024-03-13T11:36:30.162Z,62.02
2024-03-13T11:39:34.317Z,63.53
2024-03-13T11:42:37.774Z,64.10
2024-03-13T11:45:44.982Z,62.11
2024-03-13T11:48:48.017Z,62.64
2024-03-13T11:52:02.855Z,60.50
2024-03-13T11:55:23.549Z,61.62
2024-03-13T11:58:28.590Z,60.54
2024-03-13T12:01:31.990Z,60.54
2024-03-13T12:04:38.081Z,61.35
2024-03-13T12:07:44.345Z,59.11
2024-03-13T12:10:52.219Z,59.81
2024-03-13T12:13:55.578Z,60.17
2024-03-13T12:16:59.052Z,61.13
2024-03-13T12:20:01.941Z,62.45
2024-03-13T12:23:08.125Z,62.71
2024-03-13T12:26:11.295Z,63.31
2024-03-13T12:29:15.307Z,62.36
2024-03-13T12:32:17.984Z,63.22
2024-03-13T12:35:21.256Z,61.57
2024-03-13T12:38:45.624Z,59.87
2024-03-13T12:41:49.662Z,59.61
2024-03-13T12:44:56.958Z,58.15
2024-03-13T12:48:00.599Z,58.26
2024-03-13T12:51:03.895Z,59.20
2024-03-13T12:54:10.190Z,58.91
2024-03-13T12:57:13.239Z,56.71
2024-03-13T13:00:20.525Z,57.71
2024-03-13T13:03:24.070Z,59.45
2024-03-13T13:06:28.021Z,61.07
2024-03-13T13:09:30.591Z,64.30
2024-03-13T13:12:34.199Z,62.44
2024-03-13T13:15:38.981Z,64.67
2024-03-13T13:18:46.276Z,64.65
2024-03-13T13:21:48.982Z,63.69
2024-03-13T13:24:51.965Z,62.92
2024-03-13T13:27:55.709Z,63.09
2024-03-13T13:30:58.747Z,64.75
2024-03-13T13:34:01.716Z,65.27
2024-03-13T13:37:04.690Z,63.22
2024-03-13T13:40:20.786Z,62.95
2024-03-13T13:43:25.840Z,64.68
2024-03-13T13:46:36.088Z,61.96
2024-03-13T13:49:44.044Z,63.15
2024-03-13T13:52:47.568Z,62.24
2024-03-13T13:55:50.913Z,61.58
2024-03-13T13:58:53.602Z,61.59
2024-03-13T14:01:56.892Z,60.69
2024-03-13T14:04:59.845Z,62.34
2024-03-13T14:08:05.809Z,61.69
2024-03-13T14:11:08.778Z,61.26
2024-03-13T14:14:11.633Z,62.52
2024-03-13T14:17:14.875Z,63.28
2024-03-13T14:20:20.610Z,62.25
2024-03-13T14:23:24.351Z,64.31
2024-03-13T14:26:27.741Z,62.65
2024-03-13T14:29:31.448Z,61.29
2024-03-13T14:32:34.692Z,62.90
2024-03-13T14:35:37.909Z,63.22
2024-03-13T14:38:42.012Z,63.50
2024-03-13T14:41:46.588Z,64.04
2024-03-13T14:44:50.875Z,63.93
2024-03-13T14:47:53.969Z,65.16
2024-03-13T14:50:57.178Z,64.43
2024-03-13T14:54:00.482Z,65.21
2024-03-13T14:57:03.989Z,64.47
2024-03-13T15:00:12.606Z,64.23
2024-03-13T15:03:15.540Z,66.66
2024-03-13T15:06:18.488Z,65.69
2024-03-13T15:09:21.230Z,67.56
2024-03-13T15:12:24.517Z,67.12
2024-03-13T15:15:27.778Z,67.71
2024-03-13T15:18:30.820Z,68.75
2024-03-13T15:21:34.607Z,68.78
2024-03-13T15:24:39.878Z,68.79
2024-03-13T15:27:42.982Z,68.53
2024-03-13T15:30:45.969Z,69.67
2024-03-13T15:33:48.802Z,70.05
2024-03-13T15:36:51.674Z,70.22
2024-03-13T15:39:54.593Z,70.92
2024-03-13T15:42:57.848Z,70.29
2024-03-13T15:46:00.655Z,71.37
2024-03-13T15:49:03.956Z,71.01
2024-03-13T15:52:07.382Z,70.48
2024-03-13T15:55:10.348Z,69.91
2024-03-13T15:58:13.175Z,70.59
2024-03-13T16:01:16.792Z,71.16
2024-03-13T16:04:19.914Z,72.82
2024-03-13T16:07:22.508Z,71.34
2024-03-13T16:10:25.659Z,71.61
2024-03-13T16:13:28.333Z,72.75
2024-03-13T16:16:31.696Z,72.60
2024-03-13T16:19:34.604Z,73.16
2024-03-13T16:22:38.278Z,72.13
2024-03-13T16:25:41.532Z,73.40
2024-03-13T16:28:44.746Z,72.51
2024-03-13T16:31:47.900Z,73.74
2024-03-13T16:34:53.437Z,74.36
2024-03-13T16:37:56.347Z,75.39
2024-03-13T16:40:59.715Z,75.89
2024-03-13T16:44:02.622Z,76.76
2024-03-13T16:47:06.478Z,77.34
2024-03-13T16:50:09.725Z,78.51
2024-03-13T16:53:13.511Z,78.43
2024-03-13T16:56:16.189Z,79.70
2024-03-13T16:59:19.305Z,80.67
2024-03-13T17:02:22.207Z,80.12
2024-03-13T17:05:25.533Z,80.80
2024-03-13T17:08:28.468Z,81.25
2024-03-13T17:11:31.414Z,80.10
2024-03-13T17:14:34.168Z,81.13
2024-03-13T17:17:37.297Z,80.61
2024-03-13T17:20:42.516Z,81.79
2024-03-13T17:23:45.825Z,81.85
2024-03-13T17:26:48.891Z,81.14
2024-03-13T17:29:52.181Z,80.29
2024-03-13T17:32:55.194Z,80.75
2024-03-13T17:35:58.576Z,81.26
2024-03-13T17:39:02.288Z,81.98
2024-03-13T17:42:07.893Z,82.53
2024-03-13T17:45:12.575Z,82.19
2024-03-13T17:48:16.325Z,81.32
2024-03-13T17:51:19.553Z,81.96
2024-03-13T17:54:25.949Z,82.62
2024-03-13T17:57:29.913Z,84.26
2024-03-13T18:00:33.153Z,84.80
2024-03-13T18:03:36.388Z,84.74
2024-03-13T18:06:40.887Z,85.58
2024-03-13T18:09:44.064Z,86.50
2024-03-13T18:12:47.519Z,87.08
2024-03-13T18:15:50.760Z,88.43
2024-03-13T18:18:53.714Z,88.90
2024-03-13T18:21:56.961Z,87.76
2024-03-13T18:24:59.753Z,86.22
2024-03-13T18:28:03.365Z,85.74
2024-03-13T18:31:10.352Z,86.58
2024-03-13T18:34:14.620Z,85.87
2024-03-13T18:37:17.595Z,85.74
2024-03-13T18:40:20.837Z,85.94
2024-03-13T18:43:23.599Z,86.33
2024-03-13T18:46:27.336Z,87.54
2024-03-13T18:49:30.247Z,86.95
2024-03-13T18:52:33.131Z,84.92
2024-03-13T18:55:35.696Z,85.55
2024-03-13T18:58:38.646Z,84.36
2024-03-13T19:01:41.361Z,84.61
2024-03-13T19:04:46.148Z,86.10
2024-03-13T19:07:49.373Z,85.65
2024-03-13T19:10:53.269Z,86.24
2024-03-13T19:13:56.412Z,87.19
2024-03-13T19:16:59.650Z,87.83
2024-03-13T19:20:03.802Z,87.39
2024-03-13T19:23:07.272Z,88.52
2024-03-13T19:26:10.141Z,89.24
2024-03-13T19:29:13.538Z,89.26
2024-03-13T19:32:16.389Z,89.93
2024-03-13T19:35:19.774Z,89.84
2024-03-13T19:38:24.722Z,90.28
2024-03-13T19:41:27.909Z,90.17
2024-03-13T19:44:30.959Z,91.14
2024-03-13T19:47:34.776Z,90.94
2024-03-13T19:50:40.585Z,91.37
2024-03-13T19:53:43.711Z,91.59
2024-03-13T19:56:46.850Z,91.99
2024-03-13T19:59:49.935Z,92.22
2024-03-13T20:02:53.305Z,92.10
2024-03-13T20:05:57.095Z,92.08
2024-03-13T20:09:00.051Z,92.66
2024-03-13T20:12:03.893Z,93.07
2024-03-13T20:15:08.017Z,92.79
2024-03-13T20:18:11.139Z,93.17
2024-03-13T20:21:15.435Z,93.22
2024-03-13T20:24:18.327Z,92.71
2024-03-13T20:27:22.600Z,91.90
2024-03-13T20:30:25.939Z,91.35
2024-03-13T20:33:28.885Z,91.65
2024-03-13T20:36:35.058Z,91.16
2024-03-13T20:39:37.822Z,92.27
2024-03-13T20:42:44.221Z,92.73
2024-03-13T20:45:46.885Z,92.95
2024-03-13T20:48:50.193Z,92.69
2024-03-13T20:51:52.925Z,92.96
2024-03-13T20:54:56.216Z,93.68
2024-03-13T20:57:58.818Z,92.95
2024-03-13T21:01:02.591Z,90.52
2024-03-13T21:04:05.588Z,90.08
2024-03-13T21:07:08.642Z,91.14
2024-03-13T21:10:11.565Z,89.49
2024-03-13T21:13:14.677Z,88.04
2024-03-13T21:16:20.846Z,86.81
2024-03-13T21:19:23.799Z,85.86
2024-03-13T21:22:28.616Z,86.42
2024-03-13T21:25:33.490Z,86.20
2024-03-13T21:28:36.839Z,85.33
2024-03-13T21:31:39.792Z,85.49
2024-03-13T21:34:42.715Z,85.04
2024-03-13T21:37:46.193Z,85.11
2024-03-13T21:40:49.487Z,86.34
2024-03-13T21:43:52.859Z,87.53
2024-03-13T21:46:55.815Z,87.10
2024-03-13T21:49:58.753Z,87.23
2024-03-13T21:53:01.368Z,87.92
2024-03-13T21:56:07.700Z,87.20
2024-03-13T21:59:10.672Z,88.79
2024-03-13T22:02:13.673Z,88.87
2024-03-13T22:05:16.655Z,88.79
2024-03-13T22:08:19.717Z,88.96
2024-03-13T22:11:24.669Z,88.76
2024-03-13T22:14:28.012Z,88.76
2024-03-13T22:17:31.369Z,89.02
2024-03-13T22:20:34.129Z,89.87
2024-03-13T22:23:40.061Z,90.10
2024-03-13T22:26:44.373Z,89.12
2024-03-13T22:29:47.828Z,90.15
2024-03-13T22:32:50.742Z,90.70
2024-03-13T22:35:54.077Z,89.73
2024-03-13T22:38:56.947Z,89.34
2024-03-13T22:42:00.042Z,88.83
2024-03-13T22:45:03.318Z,90.41
2024-03-13T22:48:08.970Z,89.17
2024-03-13T22:51:12.074Z,89.58
2024-03-13T22:54:15.112Z,87.96
2024-03-13T22:57:18.122Z,87.86
2024-03-13T23:00:27.270Z,87.61
2024-03-13T23:03:30.219Z,86.73
2024-03-13T23:06:33.237Z,86.26
2024-03-13T23:09:36.205Z,86.85
2024-03-13T23:12:39.292Z,86.72
2024-03-13T23:15:42.200Z,86.97
2024-03-13T23:18:46.108Z,88.49
2024-03-13T23:21:49.713Z,87.10
2024-03-13T23:24:52.911Z,87.44
2024-03-13T23:27:55.887Z,87.79
2024-03-13T23:30:58.782Z,86.94
2024-03-13T23:34:01.573Z,86.86
2024-03-13T23:37:05.687Z,86.13
2024-03-13T23:40:11.994Z,85.87
2024-03-13T23:43:15.071Z,87.16
2024-03-13T23:46:18.357Z,86.23
2024-03-13T23:49:23.788Z,87.28
2024-03-13T23:52:26.590Z,87.69
2024-03-13T23:55:29.423Z,87.51
2024-03-13T23:58:33.904Z,88.99
